Time;durP1;ratioP1;P1;durP2;ratioP2;P2;SDS_P1;SDS_P2;PMS_P1;PMS_P2;Temp;Humidity;BMP_temperature;BMP_pressure;BME280_temperature;BME280_humidity;BME280_pressure;Samples;Min_cycle;Max_cycle;Signal;HPM_P1;HPM_P2
2022/03/09 00:00:40;;;;;;;1.65;0.20;;;23.10;99.90;;;;;;4997612;28;20076;-69
2022/03/09 00:03:07;;;;;;;0.35;0.35;;;23.10;99.90;;;;;;4997570;28;20025;-70
2022/03/09 00:05:34;;;;;;;0.13;0.10;;;23.10;99.90;;;;;;4997228;28;20034;-66
2022/03/09 00:08:01;;;;;;;0.08;0.00;;;23.20;99.90;;;;;;4995907;28;20102;-66
2022/03/09 00:10:28;;;;;;;0.20;0.10;;;23.30;99.90;;;;;;4996450;28;20602;-69
2022/03/09 00:12:55;;;;;;;0.60;0.25;;;23.40;99.90;;;;;;4996517;28;20432;-68
2022/03/09 00:15:22;;;;;;;0.80;0.30;;;23.50;99.90;;;;;;4994726;28;20615;-67
2022/03/09 00:17:49;;;;;;;0.10;0.10;;;23.60;99.90;;;;;;4995785;28;20109;-70
2022/03/09 00:20:16;;;;;;;0.20;0.10;;;23.80;99.90;;;;;;4994184;28;20072;-69
2022/03/09 00:22:43;;;;;;;0.47;0.28;;;23.90;99.90;;;;;;4996831;28;20018;-70
2022/03/09 00:25:10;;;;;;;0.40;0.40;;;24.10;99.90;;;;;;4995520;28;20413;-68
2022/03/09 00:27:37;;;;;;;1.75;1.23;;;24.10;99.90;;;;;;4997806;28;20022;-68
2022/03/09 00:30:05;;;;;;;0.82;0.28;;;24.40;99.90;;;;;;4997003;28;20073;-66
2022/03/09 00:32:33;;;;;;;0.15;0.08;;;24.80;99.90;;;;;;4994793;28;20030;-70
2022/03/09 00:35:00;;;;;;;0.93;0.20;;;24.60;99.90;;;;;;4998903;28;20025;-67
2022/03/09 00:37:27;;;;;;;0.65;0.03;;;24.60;99.90;;;;;;4994501;28;20145;-68
2022/03/09 00:39:54;;;;;;;0.80;0.22;;;24.70;99.90;;;;;;4997296;28;20018;-68
2022/03/09 00:42:20;;;;;;;0.75;0.10;;;25.00;99.90;;;;;;4999179;28;20433;-68
2022/03/09 00:44:47;;;;;;;0.00;0.00;;;25.00;99.90;;;;;;4999701;28;20752;-69
2022/03/09 00:47:14;;;;;;;0.77;0.40;;;24.90;99.90;;;;;;4995923;28;20666;-65
2022/03/09 00:49:41;;;;;;;0.15;0.10;;;24.70;99.90;;;;;;4999312;28;20056;-69
2022/03/09 00:52:08;;;;;;;0.20;0.17;;;24.70;99.90;;;;;;4997112;28;20026;-64
2022/03/09 00:54:35;;;;;;;0.57;0.20;;;24.70;99.90;;;;;;4993060;28;20037;-67
2022/03/09 00:57:02;;;;;;;0.32;0.15;;;24.70;99.90;;;;;;4999724;28;20123;-68
2022/03/09 00:59:29;;;;;;;0.28;0.13;;;24.70;99.90;;;;;;4993520;28;20033;-69
2022/03/09 01:01:56;;;;;;;0.80;0.20;;;24.40;99.90;;;;;;4994659;28;20394;-69
2022/03/09 01:04:23;;;;;;;1.65;0.25;;;24.10;99.90;;;;;;4997564;28;20034;-68
2022/03/09 01:06:50;;;;;;;0.30;0.03;;;24.20;99.90;;;;;;4996653;28;20457;-66
2022/03/09 01:09:17;;;;;;;0.63;0.60;;;24.30;99.90;;;;;;4994697;28;20026;-69
2022/03/09 01:11:44;;;;;;;0.77;0.10;;;24.10;99.90;;;;;;4995844;28;20077;-69
2022/03/09 01:14:11;;;;;;;0.13;0.10;;;24.10;99.90;;;;;;4997978;28;20041;-69
2022/03/09 01:16:38;;;;;;;0.20;0.10;;;24.20;99.90;;;;;;4992592;28;20057;-69
2022/03/09 01:19:05;;;;;;;0.10;0.10;;;24.30;99.90;;;;;;4993947;28;20362;-69
2022/03/09 01:21:32;;;;;;;0.43;0.43;;;24.50;99.90;;;;;;4993640;28;20045;-68
2022/03/09 01:23:59;;;;;;;0.43;0.22;;;25.20;99.90;;;;;;4995996;28;20033;-67
2022/03/09 01:26:26;;;;;;;1.05;0.20;;;25.60;99.90;;;;;;4994264;28;20446;-68
2022/03/09 01:28:54;;;;;;;0.25;0.03;;;25.50;99.90;;;;;;4996505;28;20427;-70
2022/03/09 01:31:21;;;;;;;2.78;1.58;;;25.20;99.90;;;;;;4996450;28;20054;-69
2022/03/09 01:33:48;;;;;;;0.20;0.20;;;25.00;99.90;;;;;;4994046;28;20038;-66
2022/03/09 01:36:15;;;;;;;0.70;0.10;;;24.70;99.90;;;;;;4994962;28;20018;-70
2022/03/09 01:38:42;;;;;;;0.90;0.30;;;24.60;99.90;;;;;;4992986;28;20017;-69
2022/03/09 01:41:09;;;;;;;1.15;0.65;;;24.60;99.90;;;;;;4995074;28;20014;-70
2022/03/09 01:43:36;;;;;;;1.40;0.40;;;24.60;99.90;;;;;;4993668;28;20030;-67
2022/03/09 01:46:03;;;;;;;0.50;0.20;;;24.60;99.90;;;;;;4997529;28;20026;-69
2022/03/09 01:48:30;;;;;;;0.30;0.20;;;24.90;99.90;;;;;;4999503;28;20028;-69
2022/03/09 01:50:57;;;;;;;2.65;0.40;;;25.10;99.90;;;;;;5000071;28;20088;-67
2022/03/09 01:53:24;;;;;;;0.22;0.20;;;25.50;99.90;;;;;;4997722;28;20030;-66
2022/03/09 01:55:51;;;;;;;1.85;0.57;;;25.20;99.90;;;;;;4998034;28;20018;-69
2022/03/09 01:58:18;;;;;;;0.57;0.15;;;25.20;99.90;;;;;;4992381;28;20458;-69
2022/03/09 02:00:45;;;;;;;0.10;0.10;;;25.40;99.90;;;;;;4996128;28;20022;-67
2022/03/09 02:03:12;;;;;;;0.28;0.20;;;25.50;99.90;;;;;;4989204;28;20485;-67
2022/03/09 02:05:39;;;;;;;0.25;0.20;;;25.70;99.90;;;;;;4996832;28;20033;-68
2022/03/09 02:10:52;;;;;;;0.35;0.10;;;26.20;99.90;;;;;;4995767;28;20080;-71
2022/03/09 02:13:19;;;;;;;0.10;0.10;;;26.30;99.90;;;;;;4995552;28;20022;-65
2022/03/09 02:15:46;;;;;;;0.38;0.20;;;26.50;99.90;;;;;;4991672;28;20540;-67
2022/03/09 02:18:13;;;;;;;0.10;0.10;;;26.50;99.90;;;;;;4993168;28;20034;-67
2022/03/09 02:20:44;;;;;;;0.60;0.20;;;26.30;99.90;;;;;;4993147;28;20069;-65
2022/03/09 02:23:11;;;;;;;1.27;0.10;;;26.80;99.90;;;;;;5001560;28;20040;-67
2022/03/09 02:25:38;;;;;;;0.10;0.10;;;26.90;99.90;;;;;;4997176;28;20081;-65
2022/03/09 02:28:05;;;;;;;0.17;0.10;;;26.90;99.90;;;;;;4992328;28;20037;-64
2022/03/09 02:30:32;;;;;;;0.25;0.17;;;27.10;99.90;;;;;;4994062;28;20062;-67
2022/03/09 02:32:59;;;;;;;0.50;0.17;;;26.90;99.90;;;;;;4996132;28;20034;-64
2022/03/09 02:35:26;;;;;;;0.17;0.10;;;26.80;99.90;;;;;;4989805;28;20126;-65
2022/03/09 02:37:53;;;;;;;0.43;0.20;;;26.70;99.90;;;;;;4994539;28;20562;-64
2022/03/09 02:40:20;;;;;;;1.00;0.20;;;26.60;99.90;;;;;;4998889;28;20401;-67
2022/03/09 02:42:47;;;;;;;1.55;0.20;;;26.60;99.90;;;;;;4993844;28;20473;-63
2022/03/09 02:45:14;;;;;;;0.20;0.10;;;26.30;99.90;;;;;;4998097;28;20032;-67
2022/03/09 02:47:45;;;;;;;1.42;0.15;;;26.20;99.90;;;;;;4998085;28;20050;-64
2022/03/09 02:50:15;;;;;;;1.75;0.20;;;26.40;99.90;;;;;;4994625;28;20114;-66
2022/03/09 02:52:44;;;;;;;0.22;0.20;;;26.50;99.90;;;;;;4994027;28;20061;-67
2022/03/09 02:55:12;;;;;;;0.30;0.22;;;26.60;99.90;;;;;;4999016;28;20038;-64
2022/03/09 02:57:40;;;;;;;0.52;0.15;;;27.00;99.90;;;;;;5004147;28;20481;-65
2022/03/09 03:00:08;;;;;;;0.77;0.20;;;26.90;99.90;;;;;;4996662;28;20026;-65
2022/03/09 03:02:36;;;;;;;4.55;0.22;;;27.00;99.90;;;;;;4988454;28;20030;-67
2022/03/09 03:05:05;;;;;;;0.25;0.10;;;26.60;99.90;;;;;;4996075;28;20030;-68
2022/03/09 03:07:31;;;;;;;0.35;0.20;;;26.50;99.90;;;;;;4996329;28;20121;-63
2022/03/09 03:09:58;;;;;;;0.17;0.17;;;26.60;99.90;;;;;;4996797;28;20523;-68
2022/03/09 03:12:25;;;;;;;0.40;0.20;;;26.80;99.90;;;;;;4997372;28;20689;-74
2022/03/09 03:14:52;;;;;;;0.38;0.38;;;27.00;99.90;;;;;;4989592;28;20722;-69
2022/03/09 03:17:19;;;;;;;0.10;0.10;;;26.90;99.90;;;;;;4995406;28;20029;-64
2022/03/09 03:19:46;;;;;;;2.05;0.17;;;26.60;99.90;;;;;;4999902;28;20026;-64
2022/03/09 03:22:13;;;;;;;1.45;0.10;;;26.60;99.90;;;;;;4992324;28;20030;-68
2022/03/09 03:24:40;;;;;;;0.55;0.20;;;26.50;99.90;;;;;;4992406;28;20033;-67
2022/03/09 03:27:07;;;;;;;0.98;0.40;;;26.30;99.90;;;;;;4995515;28;20023;-67
2022/03/09 03:29:34;;;;;;;1.65;0.20;;;26.60;99.90;;;;;;5002523;28;20442;-64
2022/03/09 03:32:01;;;;;;;0.50;0.20;;;26.90;99.90;;;;;;4993305;28;20497;-67
2022/03/09 03:34:28;;;;;;;0.85;0.20;;;26.50;99.90;;;;;;4991381;28;20113;-64
2022/03/09 03:36:55;;;;;;;0.90;0.10;;;26.10;99.90;;;;;;5003209;28;20076;-67
2022/03/09 03:39:22;;;;;;;0.30;0.20;;;26.40;99.90;;;;;;5001399;28;20391;-66
2022/03/09 03:41:49;;;;;;;0.35;0.20;;;26.40;99.90;;;;;;5015761;28;20026;-67
2022/03/09 03:44:16;;;;;;;0.30;0.20;;;26.80;99.90;;;;;;4999951;28;20026;-70
2022/03/09 03:46:44;;;;;;;0.95;0.03;;;27.50;99.50;;;;;;4992450;28;20041;-64
2022/03/09 03:49:11;;;;;;;0.20;0.10;;;27.10;99.90;;;;;;4991261;28;20117;-65
2022/03/09 03:51:38;;;;;;;1.10;0.30;;;26.80;99.90;;;;;;4997796;28;20029;-66
2022/03/09 03:54:05;;;;;;;2.55;0.50;;;26.50;99.90;;;;;;4991622;28;20517;-68
2022/03/09 03:56:32;;;;;;;1.02;0.50;;;26.50;99.90;;;;;;5010910;28;20125;-64
2022/03/09 03:58:59;;;;;;;0.60;0.40;;;26.80;99.90;;;;;;4994380;28;20045;-64
2022/03/09 04:01:26;;;;;;;0.40;0.40;;;27.00;99.90;;;;;;5001011;28;20022;-66
2022/03/09 04:03:53;;;;;;;2.38;1.15;;;27.60;99.90;;;;;;5000630;28;20101;-66
2022/03/09 04:06:20;;;;;;;0.35;0.20;;;27.80;99.20;;;;;;4991034;28;20029;-66
2022/03/09 04:08:46;;;;;;;0.20;0.20;;;28.00;98.90;;;;;;4988711;28;20030;-66
2022/03/09 04:11:13;;;;;;;0.30;0.20;;;27.50;99.20;;;;;;4997722;28;20017;-66
2022/03/09 04:13:42;;;;;;;1.48;0.22;;;27.10;99.30;;;;;;4993585;28;20493;-64
2022/03/09 04:16:10;;;;;;;0.28;0.10;;;27.60;99.90;;;;;;5004275;28;20037;-65
2022/03/09 04:18:37;;;;;;;0.20;0.20;;;28.00;98.70;;;;;;4991075;28;20034;-70
2022/03/09 04:21:04;;;;;;;0.38;0.30;;;28.20;99.50;;;;;;4998596;28;20617;-65
2022/03/09 04:23:31;;;;;;;0.70;0.20;;;28.50;98.50;;;;;;4994306;28;20524;-68
2022/03/09 04:25:58;;;;;;;0.35;0.10;;;27.80;98.30;;;;;;4999714;28;20105;-66
2022/03/09 04:28:25;;;;;;;0.30;0.30;;;27.10;99.40;;;;;;5001035;28;20022;-69
2022/03/09 04:30:52;;;;;;;1.58;0.30;;;26.70;99.90;;;;;;4998905;28;20084;-72
2022/03/09 04:33:19;;;;;;;0.40;0.20;;;26.80;99.90;;;;;;4998692;28;20064;-67
2022/03/09 04:35:46;;;;;;;1.45;1.35;;;27.00;99.90;;;;;;4999954;28;20057;-68
2022/03/09 04:38:13;;;;;;;1.25;0.10;;;27.10;99.90;;;;;;4998633;28;20558;-67
2022/03/09 04:40:40;;;;;;;0.57;0.38;;;27.10;99.90;;;;;;5003808;28;20580;-67
2022/03/09 04:43:08;;;;;;;0.10;0.10;;;27.10;99.10;;;;;;4998489;28;20022;-63
2022/03/09 04:45:34;;;;;;;0.17;0.10;;;27.40;99.30;;;;;;4998772;28;20124;-67
2022/03/09 04:48:01;;;;;;;0.60;0.10;;;27.20;99.10;;;;;;5001038;28;20572;-64
2022/03/09 04:50:29;;;;;;;0.55;0.20;;;27.20;99.00;;;;;;5000737;28;20014;-66
2022/03/09 04:52:56;;;;;;;0.20;0.20;;;27.20;99.30;;;;;;4998061;28;20049;-66
2022/03/09 04:55:22;;;;;;;0.75;0.40;;;27.50;98.40;;;;;;5001811;28;20029;-67
2022/03/09 04:57:50;;;;;;;0.52;0.28;;;27.50;98.40;;;;;;4994606;28;20022;-63
2022/03/09 05:00:17;;;;;;;2.15;0.30;;;27.60;98.80;;;;;;4997348;28;20118;-67
2022/03/09 05:02:44;;;;;;;0.38;0.10;;;27.60;98.00;;;;;;4998642;28;20568;-64
2022/03/09 05:05:12;;;;;;;0.38;0.20;;;27.70;98.10;;;;;;4999526;28;20034;-66
2022/03/09 05:07:42;;;;;;;0.90;0.10;;;27.70;97.70;;;;;;4996654;28;20472;-64
2022/03/09 05:10:12;;;;;;;2.85;0.40;;;27.90;97.80;;;;;;4998825;28;20026;-64
2022/03/09 05:12:39;;;;;;;0.50;0.17;;;28.20;97.70;;;;;;5000836;28;20037;-65
2022/03/09 05:15:08;;;;;;;0.60;0.57;;;28.10;97.70;;;;;;4999140;28;20405;-65
2022/03/09 05:17:44;;;;;;;1.48;0.43;;;28.00;97.20;;;;;;4991691;28;20109;-64
2022/03/09 05:20:15;;;;;;;1.48;0.30;;;28.40;97.80;;;;;;4993446;28;20034;-63
2022/03/09 05:22:42;;;;;;;0.30;0.20;;;28.40;96.90;;;;;;4995005;28;20030;-63
2022/03/09 05:25:10;;;;;;;0.70;0.08;;;27.90;97.10;;;;;;4997200;28;20037;-65
2022/03/09 05:27:38;;;;;;;0.30;0.15;;;27.90;97.40;;;;;;4998397;28;20033;-66
2022/03/09 05:30:05;;;;;;;0.38;0.20;;;27.80;96.90;;;;;;5002039;28;20036;-64
2022/03/09 05:32:32;;;;;;;0.20;0.20;;;27.70;97.80;;;;;;4992072;28;20030;-69
2022/03/09 05:34:59;;;;;;;0.77;0.30;;;27.90;97.50;;;;;;4999257;28;20025;-65
2022/03/09 05:37:28;;;;;;;0.47;0.25;;;28.20;97.10;;;;;;4990958;28;20057;-72
2022/03/09 05:39:55;;;;;;;0.20;0.20;;;28.00;96.80;;;;;;4999802;28;20025;-72
2022/03/09 05:42:22;;;;;;;0.45;0.20;;;27.90;97.50;;;;;;4999205;28;20029;-67
2022/03/09 05:44:49;;;;;;;0.10;0.10;;;27.90;97.40;;;;;;4993216;28;20030;-69
2022/03/09 05:47:16;;;;;;;0.32;0.10;;;27.80;97.30;;;;;;4997266;28;20906;-67
2022/03/09 05:49:43;;;;;;;0.47;0.30;;;27.70;97.40;;;;;;4996434;28;20380;-67
2022/03/09 05:52:10;;;;;;;0.20;0.20;;;27.70;97.00;;;;;;4992837;28;20481;-67
2022/03/09 05:54:37;;;;;;;1.58;0.30;;;27.40;97.40;;;;;;4999608;28;20392;-66
2022/03/09 05:57:04;;;;;;;0.30;0.20;;;27.00;97.10;;;;;;5001507;28;20105;-68
2022/03/09 05:59:31;;;;;;;1.45;0.20;;;26.90;97.70;;;;;;5002301;28;20050;-68
2022/03/09 06:01:58;;;;;;;0.40;0.20;;;27.00;98.00;;;;;;5001072;28;20029;-66
2022/03/09 06:04:25;;;;;;;0.47;0.20;;;27.00;96.90;;;;;;5001013;28;20026;-67
2022/03/09 06:06:52;;;;;;;0.30;0.10;;;26.70;97.30;;;;;;5001017;28;20029;-65
2022/03/09 06:09:19;;;;;;;0.17;0.17;;;26.80;97.40;;;;;;5000724;28;20026;-67
2022/03/09 06:11:48;;;;;;;1.00;0.20;;;26.70;97.00;;;;;;5000908;28;20097;-67
2022/03/09 06:14:15;;;;;;;0.43;0.30;;;26.30;97.40;;;;;;5004291;28;20022;-69
2022/03/09 06:16:42;;;;;;;0.13;0.13;;;26.40;97.50;;;;;;5007023;28;20045;-67
2022/03/09 06:19:09;;;;;;;0.35;0.20;;;26.20;97.20;;;;;;5004655;28;20026;-66
2022/03/09 06:21:36;;;;;;;1.58;0.20;;;26.20;97.90;;;;;;4998747;28;20447;-68
2022/03/09 06:24:03;;;;;;;0.47;0.20;;;26.40;97.70;;;;;;5001736;28;20033;-68
2022/03/09 06:26:30;;;;;;;0.75;0.25;;;26.40;97.70;;;;;;5003954;28;20100;-66
2022/03/09 06:28:57;;;;;;;2.83;0.40;;;26.50;97.70;;;;;;5004963;28;20303;-66
2022/03/09 06:31:24;;;;;;;0.60;0.20;;;26.50;96.70;;;;;;5005353;28;20430;-65
2022/03/09 06:33:51;;;;;;;1.45;1.17;;;26.20;97.20;;;;;;5003765;28;20431;-65
2022/03/09 06:36:18;;;;;;;0.45;0.20;;;26.10;97.40;;;;;;5005171;28;20030;-66
2022/03/09 06:38:45;;;;;;;0.20;0.20;;;26.00;97.70;;;;;;5003640;28;20532;-67
2022/03/09 06:41:12;;;;;;;0.20;0.20;;;25.90;98.30;;;;;;5004907;28;20613;-65
2022/03/09 06:43:40;;;;;;;0.20;0.20;;;25.60;98.50;;;;;;5002013;28;20032;-67
2022/03/09 06:46:07;;;;;;;0.32;0.20;;;26.10;98.70;;;;;;5003100;28;20034;-67
2022/03/09 06:48:34;;;;;;;0.43;0.40;;;26.80;97.90;;;;;;5004938;28;20083;-68
2022/03/09 06:51:01;;;;;;;0.70;0.20;;;26.80;97.10;;;;;;5004025;28;20034;-69
2022/03/09 06:53:29;;;;;;;3.83;0.90;;;26.20;98.20;;;;;;5000367;28;20411;-66
2022/03/09 06:55:56;;;;;;;0.38;0.20;;;25.90;98.60;;;;;;5004141;28;20030;-68
2022/03/09 06:58:23;;;;;;;0.25;0.25;;;25.80;98.10;;;;;;5000335;28;20022;-67
2022/03/09 07:00:51;;;;;;;0.00;0.00;;;25.70;97.80;;;;;;5001148;28;20030;-68
2022/03/09 07:03:18;;;;;;;0.20;0.13;;;25.40;98.40;;;;;;5000053;28;20021;-66
2022/03/09 07:05:45;;;;;;;0.75;0.17;;;25.30;98.50;;;;;;4997244;28;20029;-66
2022/03/09 07:08:13;;;;;;;1.67;0.88;;;25.30;99.30;;;;;;4998503;28;20033;-67
2022/03/09 07:10:40;;;;;;;0.73;0.28;;;25.10;98.80;;;;;;5000977;28;20030;-67
2022/03/09 07:13:07;;;;;;;1.40;0.70;;;24.80;99.20;;;;;;5000200;28;20030;-67
2022/03/09 07:15:34;;;;;;;0.60;0.30;;;24.90;99.70;;;;;;5000877;28;20026;-66
2022/03/09 07:18:01;;;;;;;1.17;0.40;;;24.80;99.10;;;;;;5000323;28;20050;-67
2022/03/09 07:20:28;;;;;;;0.45;0.20;;;24.60;99.40;;;;;;4997713;28;20026;-67
2022/03/09 07:22:56;;;;;;;0.35;0.30;;;24.40;99.90;;;;;;4998184;28;20528;-68
2022/03/09 07:25:22;;;;;;;0.63;0.10;;;24.30;99.90;;;;;;4997613;28;20034;-67
2022/03/09 07:27:50;;;;;;;0.73;0.20;;;25.20;99.90;;;;;;4999768;28;20500;-68
2022/03/09 07:30:17;;;;;;;1.48;0.30;;;26.40;98.40;;;;;;4999625;28;20511;-68
2022/03/09 07:32:44;;;;;;;0.10;0.10;;;27.50;97.30;;;;;;5000704;28;20125;-67
2022/03/09 07:35:11;;;;;;;2.00;1.30;;;28.30;95.90;;;;;;4998360;28;20069;-68
2022/03/09 07:37:39;;;;;;;1.05;0.60;;;28.80;95.00;;;;;;4999431;28;20125;-66
2022/03/09 07:40:07;;;;;;;0.32;0.32;;;29.10;94.80;;;;;;4998703;28;20552;-68
2022/03/09 07:42:35;;;;;;;0.38;0.22;;;29.30;94.50;;;;;;4999475;28;20045;-67
2022/03/09 07:45:06;;;;;;;0.22;0.22;;;29.30;93.90;;;;;;4997333;28;21875;-65
2022/03/09 07:47:35;;;;;;;1.95;0.40;;;29.30;94.60;;;;;;5000005;28;20135;-67
2022/03/09 07:50:03;;;;;;;1.48;0.28;;;28.80;94.60;;;;;;4998367;28;20025;-66
2022/03/09 07:52:31;;;;;;;0.60;0.40;;;28.40;94.50;;;;;;4997322;28;20266;-69
2022/03/09 07:54:58;;;;;;;0.47;0.25;;;27.90;95.90;;;;;;5000124;28;20038;-67
2022/03/09 07:57:25;;;;;;;2.03;0.68;;;27.40;96.20;;;;;;5000194;28;20548;-68
2022/03/09 07:59:52;;;;;;;1.23;0.30;;;26.70;97.40;;;;;;4999148;28;20033;-68
2022/03/09 08:02:21;;;;;;;1.27;0.30;;;26.10;98.60;;;;;;5007048;28;20427;-66
2022/03/09 08:04:48;;;;;;;0.32;0.20;;;25.50;99.40;;;;;;5001604;28;20048;-67
2022/03/09 08:07:15;;;;;;;1.30;0.70;;;25.00;99.40;;;;;;5001950;28;20030;-69
2022/03/09 08:09:42;;;;;;;1.50;0.50;;;24.50;99.90;;;;;;5000869;28;20038;-67
2022/03/09 08:12:11;;;;;;;2.45;0.30;;;24.10;99.90;;;;;;4998455;28;20595;-66
2022/03/09 08:14:38;;;;;;;0.20;0.20;;;23.90;99.90;;;;;;5001481;28;20040;-67
2022/03/09 08:17:06;;;;;;;1.58;0.22;;;23.70;99.90;;;;;;5000270;28;20034;-67
2022/03/09 08:19:34;;;;;;;2.20;0.28;;;23.50;99.90;;;;;;5001635;28;20026;-66
2022/03/09 08:22:03;;;;;;;0.43;0.20;;;23.40;99.90;;;;;;4996103;28;20322;-66
2022/03/09 08:24:30;;;;;;;0.50;0.50;;;23.10;99.90;;;;;;4999863;28;20033;-66
2022/03/09 08:27:03;;;;;;;0.80;0.75;;;23.00;99.90;;;;;;5000199;28;20242;-65
2022/03/09 08:29:30;;;;;;;0.65;0.50;;;22.80;99.90;;;;;;4996588;28;20840;-65
2022/03/09 08:31:57;;;;;;;1.27;0.68;;;22.70;99.90;;;;;;4999546;28;20981;-68
2022/03/09 08:34:24;;;;;;;0.88;0.73;;;22.50;99.90;;;;;;5002399;28;20019;-68
2022/03/09 08:36:51;;;;;;;2.85;1.05;;;22.40;99.90;;;;;;4999992;28;20046;-65
2022/03/09 08:39:19;;;;;;;3.95;0.75;;;22.30;99.90;;;;;;4999485;28;20034;-67
2022/03/09 08:41:47;;;;;;;4.95;0.75;;;22.10;99.90;;;;;;4997242;28;20424;-67
2022/03/09 08:44:16;;;;;;;3.17;0.65;;;21.90;99.90;;;;;;5003337;28;20112;-69
2022/03/09 08:46:43;;;;;;;3.53;1.60;;;21.90;99.90;;;;;;5000086;28;20504;-71
2022/03/09 08:49:10;;;;;;;3.28;1.63;;;21.70;99.90;;;;;;5004055;28;20026;-67
2022/03/09 08:51:37;;;;;;;4.55;1.20;;;21.60;99.90;;;;;;5001348;28;20044;-66
2022/03/09 08:54:04;;;;;;;4.57;1.30;;;21.50;99.90;;;;;;5010475;28;20033;-66
2022/03/09 08:56:32;;;;;;;6.32;1.33;;;21.40;99.90;;;;;;5003706;28;20447;-65
2022/03/09 08:59:40;;;;;;;9.45;2.17;;;21.40;99.90;;;;;;5006994;28;20379;-64
2022/03/09 09:02:07;;;;;;;7.18;1.83;;;21.30;99.90;;;;;;4996620;28;20091;-68
2022/03/09 09:04:34;;;;;;;4.63;1.60;;;21.20;99.90;;;;;;5001373;28;20416;-67
2022/03/09 09:07:02;;;;;;;8.70;2.10;;;21.10;99.90;;;;;;5003376;28;20045;-68
2022/03/09 09:09:29;;;;;;;7.60;2.63;;;21.00;99.90;;;;;;5009782;28;20116;-67
2022/03/09 09:11:56;;;;;;;5.22;1.63;;;20.80;99.90;;;;;;4997741;28;20034;-66
2022/03/09 09:14:23;;;;;;;20.98;15.10;;;20.70;99.90;;;;;;5001944;28;20163;-65
2022/03/09 09:16:50;;;;;;;8.93;2.63;;;20.60;99.90;;;;;;5003679;28;20025;-65
2022/03/09 09:19:17;;;;;;;8.73;3.20;;;20.50;99.90;;;;;;5005572;28;20022;-66
2022/03/09 09:21:45;;;;;;;7.97;2.65;;;20.40;99.90;;;;;;5002296;28;20026;-67
2022/03/09 09:24:12;;;;;;;12.38;3.30;;;20.30;99.90;;;;;;4999210;28;20068;-65
2022/03/09 09:26:39;;;;;;;7.07;2.70;;;20.20;99.90;;;;;;5004441;28;20033;-66
2022/03/09 09:29:07;;;;;;;8.52;3.00;;;20.10;99.90;;;;;;5003694;28;20037;-67
2022/03/09 09:31:34;;;;;;;8.18;2.50;;;20.10;99.90;;;;;;4999905;28;20080;-66
2022/03/09 09:34:04;;;;;;;8.82;2.20;;;20.00;99.90;;;;;;5002160;28;20592;-65
2022/03/09 09:36:31;;;;;;;7.57;2.03;;;19.90;99.90;;;;;;5004599;28;20045;-65
2022/03/09 09:38:58;;;;;;;6.05;2.28;;;19.90;99.90;;;;;;5000237;28;20117;-64
2022/03/09 09:41:26;;;;;;;5.72;2.00;;;19.80;99.90;;;;;;5003579;28;20026;-65
2022/03/09 09:43:53;;;;;;;5.88;2.22;;;19.90;99.90;;;;;;5002848;28;20029;-66
2022/03/09 09:46:21;;;;;;;8.25;3.35;;;19.80;99.90;;;;;;5001656;28;20444;-64
2022/03/09 09:48:48;;;;;;;8.18;3.10;;;19.80;99.90;;;;;;5004048;28;20026;-65
2022/03/09 09:51:16;;;;;;;5.65;2.05;;;19.70;99.90;;;;;;5003701;28;20108;-65
2022/03/09 09:53:46;;;;;;;6.15;1.70;;;19.70;99.90;;;;;;4998376;28;20026;-65
2022/03/09 09:56:14;;;;;;;9.63;2.17;;;19.70;99.90;;;;;;5001917;28;20026;-67
2022/03/09 09:58:42;;;;;;;11.23;2.55;;;19.70;99.90;;;;;;5006541;28;20126;-66
2022/03/09 10:01:10;;;;;;;7.88;2.60;;;19.60;99.90;;;;;;4999220;28;20038;-66
2022/03/09 10:03:37;;;;;;;5.80;2.28;;;19.60;99.90;;;;;;5002698;28;20042;-66
2022/03/09 10:06:05;;;;;;;6.35;2.10;;;19.50;99.90;;;;;;5004169;28;20113;-65
2022/03/09 10:08:31;;;;;;;8.07;2.67;;;19.50;99.90;;;;;;5006875;28;20034;-66
2022/03/09 10:10:59;;;;;;;8.45;2.20;;;19.50;99.90;;;;;;5005254;28;20469;-66
2022/03/09 10:13:29;;;;;;;9.60;2.25;;;19.40;99.90;;;;;;5001873;28;20058;-65
2022/03/09 10:16:16;;;;;;;9.65;1.63;;;19.40;99.90;;;;;;4996104;28;20085;-65
2022/03/09 10:18:54;;;;;;;8.27;2.45;;;19.40;99.90;;;;;;5002037;28;20022;-64
2022/03/09 10:21:25;;;;;;;4.75;2.25;;;19.30;99.90;;;;;;5002071;28;20029;-65
2022/03/09 10:23:56;;;;;;;7.22;2.20;;;19.30;99.90;;;;;;4994982;28;20030;-65
2022/03/09 10:26:26;;;;;;;7.47;1.90;;;19.30;99.90;;;;;;4999100;28;20040;-65
2022/03/09 10:29:15;;;;;;;7.18;2.33;;;19.20;99.90;;;;;;4998215;28;21356;-64
2022/03/09 10:31:47;;;;;;;7.07;2.10;;;19.10;99.90;;;;;;4997294;28;20027;-63
2022/03/09 10:34:25;;;;;;;5.85;1.85;;;19.00;99.90;;;;;;4994821;28;20088;-68
2022/03/09 10:37:02;;;;;;;11.07;2.22;;;19.00;99.90;;;;;;5010326;23;20508;-67
2022/03/09 10:39:33;;;;;;;7.30;3.20;;;19.00;99.90;;;;;;5018838;28;20033;-65
2022/03/09 10:42:02;;;;;;;10.85;2.53;;;19.00;99.90;;;;;;5016388;28;20029;-67
2022/03/09 10:44:46;;;;;;;6.18;1.95;;;18.90;99.90;;;;;;5014690;28;20105;-68
2022/03/09 10:47:32;;;;;;;7.10;1.70;;;18.90;99.90;;;;;;5010366;28;20699;-64
2022/03/09 10:50:16;;;;;;;9.38;1.95;;;18.80;99.90;;;;;;5011109;28;20477;-64
2022/03/09 10:52:54;;;;;;;6.43;2.13;;;18.80;99.90;;;;;;5015636;28;20030;-63
2022/03/09 10:55:26;;;;;;;8.75;2.22;;;18.70;99.90;;;;;;5014756;28;20021;-68
2022/03/09 10:58:26;;;;;;;8.05;3.22;;;18.70;99.90;;;;;;5017513;28;20018;-65
2022/03/09 11:00:54;;;;;;;5.75;1.85;;;18.50;99.90;;;;;;4972142;28;20404;-64
2022/03/09 11:03:27;;;;;;;8.02;1.98;;;18.40;99.90;;;;;;4971301;28;20063;-67
2022/03/09 11:05:58;;;;;;;9.75;1.88;;;18.40;99.90;;;;;;4974751;28;20102;-65
2022/03/09 11:08:28;;;;;;;9.77;1.73;;;18.30;99.90;;;;;;4971638;28;20031;-67
2022/03/09 11:10:58;;;;;;;8.00;1.85;;;18.20;99.90;;;;;;4976523;28;20035;-63
2022/03/09 11:13:26;;;;;;;5.68;1.58;;;18.20;99.90;;;;;;4971778;28;20096;-64
2022/03/09 11:15:54;;;;;;;5.85;1.60;;;18.10;99.90;;;;;;4970912;28;20033;-68
2022/03/09 11:18:24;;;;;;;7.53;2.08;;;18.00;99.90;;;;;;4972253;28;20058;-68
2022/03/09 11:20:53;;;;;;;5.90;1.73;;;17.90;99.90;;;;;;4972708;28;20038;-66
2022/03/09 11:23:21;;;;;;;5.20;1.73;;;17.90;99.90;;;;;;4971062;28;20168;-67
2022/03/09 11:26:14;;;;;;;6.93;1.85;;;17.90;99.90;;;;;;4973207;28;20563;-68
2022/03/09 11:28:44;;;;;;;8.43;2.28;;;17.80;99.90;;;;;;4972308;28;20030;-67
2022/03/09 11:31:17;;;;;;;5.75;1.73;;;17.80;99.90;;;;;;4973819;28;20057;-64
2022/03/09 11:33:48;;;;;;;9.07;2.47;;;17.80;99.90;;;;;;4971659;28;20370;-67
2022/03/09 11:36:33;;;;;;;5.85;1.70;;;17.80;99.90;;;;;;4988197;28;20056;-66
2022/03/09 11:39:07;;;;;;;5.07;1.67;;;17.70;99.90;;;;;;5016591;28;20037;-63
2022/03/09 11:41:39;;;;;;;7.32;1.90;;;17.90;99.90;;;;;;5018294;28;20017;-67
2022/03/09 11:44:29;;;;;;;8.77;3.47;;;17.90;99.90;;;;;;5015808;28;20500;-66
2022/03/09 11:46:59;;;;;;;6.10;2.72;;;17.90;99.90;;;;;;5015480;28;20033;-64
2022/03/09 11:49:34;;;;;;;8.80;2.15;;;17.90;99.90;;;;;;5018127;28;20038;-63
2022/03/09 11:52:22;;;;;;;9.85;3.15;;;17.80;99.90;;;;;;5019731;28;20032;-67
2022/03/09 11:54:55;;;;;;;6.57;1.58;;;17.80;99.90;;;;;;5018157;28;20392;-67
2022/03/09 11:57:25;;;;;;;4.57;1.70;;;17.80;99.90;;;;;;5015927;28;20026;-64
2022/03/09 12:00:14;;;;;;;7.22;2.22;;;17.70;99.90;;;;;;5018152;28;20024;-68
2022/03/09 12:02:47;;;;;;;6.82;1.70;;;17.70;99.90;;;;;;5014514;28;20079;-64
2022/03/09 12:05:29;;;;;;;8.38;2.40;;;17.60;99.90;;;;;;5017360;28;20029;-65
2022/03/09 12:08:01;;;;;;;8.53;1.83;;;17.70;99.90;;;;;;5018374;28;20460;-69
2022/03/09 12:10:55;;;;;;;6.10;2.38;;;17.60;99.90;;;;;;5010270;28;20025;-68
2022/03/09 12:13:33;;;;;;;7.95;2.00;;;17.60;99.90;;;;;;5018326;28;20030;-69
2022/03/09 12:16:19;;;;;;;7.38;1.65;;;17.60;99.90;;;;;;5009907;28;20025;-65
2022/03/09 12:19:04;;;;;;;7.53;1.92;;;17.50;99.90;;;;;;5012556;28;20079;-67
2022/03/09 12:21:34;;;;;;;6.60;2.03;;;17.40;99.90;;;;;;5009282;28;20056;-68
2022/03/09 12:24:08;;;;;;;4.60;1.60;;;17.20;99.90;;;;;;5010651;28;20026;-65
2022/03/09 12:26:45;;;;;;;5.85;1.63;;;17.10;99.90;;;;;;5015278;28;20025;-68
2022/03/09 12:29:29;;;;;;;7.30;2.30;;;17.00;99.90;;;;;;5007740;28;20054;-68
2022/03/09 12:32:06;;;;;;;5.10;1.70;;;16.90;99.90;;;;;;5023050;28;20021;-67
2022/03/09 12:34:39;;;;;;;7.57;2.50;;;16.80;99.90;;;;;;5011734;28;20048;-69
2022/03/09 12:37:14;;;;;;;10.25;2.53;;;16.70;99.90;;;;;;5016811;28;20033;-68
2022/03/09 12:39:48;;;;;;;6.40;1.88;;;16.70;99.90;;;;;;5013140;28;20026;-65
2022/03/09 12:42:17;;;;;;;9.60;2.58;;;16.70;99.90;;;;;;5016591;28;20497;-67
2022/03/09 12:44:45;;;;;;;7.97;1.70;;;16.60;99.90;;;;;;5020852;28;20031;-69
2022/03/09 12:47:12;;;;;;;8.88;2.72;;;16.60;99.90;;;;;;5016010;28;20025;-64
2022/03/09 12:49:46;;;;;;;6.88;1.70;;;16.60;99.90;;;;;;5010729;28;20037;-69
2022/03/09 12:52:16;;;;;;;9.60;2.35;;;16.60;99.90;;;;;;5012879;28;20507;-68
2022/03/09 12:54:50;;;;;;;6.15;1.98;;;16.60;99.90;;;;;;5012784;28;20022;-65
2022/03/09 12:57:24;;;;;;;7.07;1.67;;;16.60;99.90;;;;;;5018594;28;20132;-68